Aérodrome :







RETROUVEZ-NOUS SUR...

 
LOGIN :

S'inscrire | Disclaimer

   EN    FR    IT 

 









Légende :    VFR   VFR Marginal   IFR   IFR Intensif   IFR Très Intensif
Visi : 
Plafond : 
>= 8 km
>= 3000ft
5 à 8 km
1000 à 3000 ft
1500m à 5 km
500 à 1000 ft
800 à 1500m
200 à 500 ft
< 800m
< 200 ft
Symboles :   Orages  Brouillard  Fortes neiges  Fortes précipitations  Vent > 20 kt






- Altitude de l'aérodrome : 35 ft
- Code IATA : YGR


CYGR - ëles-de-la-Madeleine

DERNIER METAR :
  • 231100Z 24012KT 20SM FEW180 FEW270 M05/M08 A2995 RMK AC1CI1 AC TR SLP145

METARs EXPIRÉS :
  • 231000Z 23012KT 15SM FEW270 M05/M08 A2994 RMK CI1 CI TR SLP142

TAF TAF CYGR
Valide du 23 à 12h jusqu'au 24 à 00h UTC


231138Z 2312/2324 24012G22KT P6SM FEW240 RMK NXT FCST BY 231400Z



MET'MAP, la Météo Aéronautique d'un coup d'oeil ! - Copyright ORBIFLY Décembre 2007 - Disclaimer

ORBIFLY MET'MAP TEAM :

Programmation & Développement : Alexandra Zaïnal
Sur une idée originale de : Baudouin d'Aumeries
Assistance à la programmation : Marc-Olivier Méhu
Soutien technique & logistique : Manuel Goepfert

Contact : metmap@orbifly.com




SOURCES & CREDITS :

   NOAA